Kansas City, Kansas
Current Conditions -  °F | °C
As of 1:54 PM on Thursday 30 Oct 2014 (Local Time) from KMKC Reporting Station
Clear Clear  
Wind Chill: 68°   Ceiling: Unl
Heat Index: 68°   Visibility: 10mi
Dew Point: 37°   Wind: 14mph
Humidity: 32%   Direction: 340°NNW
Pressure: 30"   Gusts: 24mph
Location:  39.11°N, 94.63°W
Report Text: KMKC 301854Z 34012G21KT 10SM CLR 20/03 A3000 RMK AO2 SLP155 T02000028
Loading
Personal Weather Stations






























Interactive Weather Map
Tropical Storm Tracking
New forecast layout! Learn more

10-Day Weather Forecast

Advertisements
Track Severe Weather on mobile